sensor_id;sensor_type;location;lat;lon;timestamp;temperature;humidity
4308;DHT22;2167;53.448;9.984;2024-01-30T00:01:59;3.60;1.00
4308;DHT22;2167;53.448;9.984;2024-01-30T00:04:25;3.70;1.00
4308;DHT22;2167;53.448;9.984;2024-01-30T00:06:51;3.70;1.00
4308;DHT22;2167;53.448;9.984;2024-01-30T00:09:18;3.80;1.00
4308;DHT22;2167;53.448;9.984;2024-01-30T00:11:43;3.70;1.00
4308;DHT22;2167;53.448;9.984;2024-01-30T00:14:09;3.80;1.00
4308;DHT22;2167;53.448;9.984;2024-01-30T00:16:34;3.80;1.00
4308;DHT22;2167;53.448;9.984;2024-01-30T00:19:00;3.80;1.00
4308;DHT22;2167;53.448;9.984;2024-01-30T00:21:27;3.80;1.00
4308;DHT22;2167;53.448;9.984;2024-01-30T00:23:53;3.80;1.00
4308;DHT22;2167;53.448;9.984;2024-01-30T00:26:19;3.70;1.00
4308;DHT22;2167;53.448;9.984;2024-01-30T00:28:44;3.90;1.00
4308;DHT22;2167;53.448;9.984;2024-01-30T00:31:10;3.90;1.00
4308;DHT22;2167;53.448;9.984;2024-01-30T00:33:39;4.10;1.00
4308;DHT22;2167;53.448;9.984;2024-01-30T00:36:05;4.20;1.00
4308;DHT22;2167;53.448;9.984;2024-01-30T00:38:32;4.30;1.00
4308;DHT22;2167;53.448;9.984;2024-01-30T00:40:57;4.40;1.00
4308;DHT22;2167;53.448;9.984;2024-01-30T00:43:23;4.40;1.00
4308;DHT22;2167;53.448;9.984;2024-01-30T00:45:50;4.50;1.00
4308;DHT22;2167;53.448;9.984;2024-01-30T00:48:17;4.60;1.00
4308;DHT22;2167;53.448;9.984;2024-01-30T00:50:43;4.60;1.00
4308;DHT22;2167;53.448;9.984;2024-01-30T00:53:08;4.70;1.00
4308;DHT22;2167;53.448;9.984;2024-01-30T00:55:35;4.70;1.00
4308;DHT22;2167;53.448;9.984;2024-01-30T00:58:00;4.80;1.00
4308;DHT22;2167;53.448;9.984;2024-01-30T01:00:26;4.90;1.00
4308;DHT22;2167;53.448;9.984;2024-01-30T01:02:55;4.90;1.00
4308;DHT22;2167;53.448;9.984;2024-01-30T01:05:20;4.90;1.00
4308;DHT22;2167;53.448;9.984;2024-01-30T01:07:46;4.90;1.00
4308;DHT22;2167;53.448;9.984;2024-01-30T01:10:16;5.00;1.00
4308;DHT22;2167;53.448;9.984;2024-01-30T01:12:42;5.00;1.00
4308;DHT22;2167;53.448;9.984;2024-01-30T01:15:08;5.00;1.00
4308;DHT22;2167;53.448;9.984;2024-01-30T01:17:37;5.10;1.00
4308;DHT22;2167;53.448;9.984;2024-01-30T01:20:04;5.10;1.00
4308;DHT22;2167;53.448;9.984;2024-01-30T01:22:32;5.10;1.00
4308;DHT22;2167;53.448;9.984;2024-01-30T01:24:58;5.10;1.00
4308;DHT22;2167;53.448;9.984;2024-01-30T01:27:24;5.10;1.00
4308;DHT22;2167;53.448;9.984;2024-01-30T01:29:50;5.20;1.00
4308;DHT22;2167;53.448;9.984;2024-01-30T01:32:16;5.10;1.00
4308;DHT22;2167;53.448;9.984;2024-01-30T01:34:42;5.20;1.00
4308;DHT22;2167;53.448;9.984;2024-01-30T01:37:07;5.10;1.00
4308;DHT22;2167;53.448;9.984;2024-01-30T01:39:33;5.10;1.00
4308;DHT22;2167;53.448;9.984;2024-01-30T01:41:59;5.10;1.00
4308;DHT22;2167;53.448;9.984;2024-01-30T01:44:24;5.10;1.00
4308;DHT22;2167;53.448;9.984;2024-01-30T01:46:51;5.10;1.00
4308;DHT22;2167;53.448;9.984;2024-01-30T01:49:17;5.10;1.00
4308;DHT22;2167;53.448;9.984;2024-01-30T01:51:45;5.00;1.00
4308;DHT22;2167;53.448;9.984;2024-01-30T01:54:14;5.00;1.00
4308;DHT22;2167;53.448;9.984;2024-01-30T01:56:42;5.00;1.00
4308;DHT22;2167;53.448;9.984;2024-01-30T01:59:09;5.00;1.00
4308;DHT22;2167;53.448;9.984;2024-01-30T02:01:38;5.10;1.00
4308;DHT22;2167;53.448;9.984;2024-01-30T02:04:07;5.00;1.00
4308;DHT22;2167;53.448;9.984;2024-01-30T02:06:34;5.10;1.00
4308;DHT22;2167;53.448;9.984;2024-01-30T02:08:59;5.00;1.00
4308;DHT22;2167;53.448;9.984;2024-01-30T02:11:25;5.00;1.00
4308;DHT22;2167;53.448;9.984;2024-01-30T02:13:52;5.00;1.00
4308;DHT22;2167;53.448;9.984;2024-01-30T02:16:18;4.90;1.00
4308;DHT22;2167;53.448;9.984;2024-01-30T02:18:43;4.90;1.00
4308;DHT22;2167;53.448;9.984;2024-01-30T02:21:14;5.00;1.00
4308;DHT22;2167;53.448;9.984;2024-01-30T02:23:41;5.00;1.00
4308;DHT22;2167;53.448;9.984;2024-01-30T02:26:08;4.90;1.00
4308;DHT22;2167;53.448;9.984;2024-01-30T02:28:33;5.00;1.00
4308;DHT22;2167;53.448;9.984;2024-01-30T02:30:59;5.10;1.00
4308;DHT22;2167;53.448;9.984;2024-01-30T02:33:24;5.10;1.00
4308;DHT22;2167;53.448;9.984;2024-01-30T02:35:50;5.10;1.00
4308;DHT22;2167;53.448;9.984;2024-01-30T02:38:17;5.10;1.00
4308;DHT22;2167;53.448;9.984;2024-01-30T02:40:42;5.20;1.00
4308;DHT22;2167;53.448;9.984;2024-01-30T02:43:11;5.20;1.00
4308;DHT22;2167;53.448;9.984;2024-01-30T02:48:42;5.20;1.00
4308;DHT22;2167;53.448;9.984;2024-01-30T02:54:30;5.30;1.00
4308;DHT22;2167;53.448;9.984;2024-01-30T02:57:05;5.30;1.00
4308;DHT22;2167;53.448;9.984;2024-01-30T02:59:30;5.30;1.00
4308;DHT22;2167;53.448;9.984;2024-01-30T03:02:08;5.30;1.00
4308;DHT22;2167;53.448;9.984;2024-01-30T03:05:10;5.30;1.00
4308;DHT22;2167;53.448;9.984;2024-01-30T03:07:36;5.30;1.00
4308;DHT22;2167;53.448;9.984;2024-01-30T03:10:03;5.30;1.00
4308;DHT22;2167;53.448;9.984;2024-01-30T03:12:29;5.30;1.00
4308;DHT22;2167;53.448;9.984;2024-01-30T03:14:54;5.30;1.00
4308;DHT22;2167;53.448;9.984;2024-01-30T03:17:20;5.20;1.00
4308;DHT22;2167;53.448;9.984;2024-01-30T03:19:45;5.20;1.00
4308;DHT22;2167;53.448;9.984;2024-01-30T03:22:11;5.20;1.00
4308;DHT22;2167;53.448;9.984;2024-01-30T03:24:37;5.30;1.00
4308;DHT22;2167;53.448;9.984;2024-01-30T03:27:02;5.30;1.00
4308;DHT22;2167;53.448;9.984;2024-01-30T03:29:28;5.20;1.00
4308;DHT22;2167;53.448;9.984;2024-01-30T03:31:53;5.20;1.00
4308;DHT22;2167;53.448;9.984;2024-01-30T03:34:19;5.20;1.00
4308;DHT22;2167;53.448;9.984;2024-01-30T03:36:45;5.20;1.00
4308;DHT22;2167;53.448;9.984;2024-01-30T03:39:11;5.20;1.00
4308;DHT22;2167;53.448;9.984;2024-01-30T03:41:36;5.10;1.00
4308;DHT22;2167;53.448;9.984;2024-01-30T03:44:02;5.00;1.00
4308;DHT22;2167;53.448;9.984;2024-01-30T03:46:28;5.00;1.00
4308;DHT22;2167;53.448;9.984;2024-01-30T03:48:53;5.00;1.00
4308;DHT22;2167;53.448;9.984;2024-01-30T03:51:19;5.00;1.00
4308;DHT22;2167;53.448;9.984;2024-01-30T03:53:45;5.00;1.00
4308;DHT22;2167;53.448;9.984;2024-01-30T03:56:16;5.00;1.00
4308;DHT22;2167;53.448;9.984;2024-01-30T03:58:42;5.00;1.00
4308;DHT22;2167;53.448;9.984;2024-01-30T04:01:12;5.10;1.00
4308;DHT22;2167;53.448;9.984;2024-01-30T04:03:38;5.00;1.00
4308;DHT22;2167;53.448;9.984;2024-01-30T04:09:29;5.00;1.00
4308;DHT22;2167;53.448;9.984;2024-01-30T04:12:30;5.00;1.00
4308;DHT22;2167;53.448;9.984;2024-01-30T04:15:09;4.90;1.00
4308;DHT22;2167;53.448;9.984;2024-01-30T04:25:03;4.80;1.00
4308;DHT22;2167;53.448;9.984;2024-01-30T04:31:00;4.80;1.00
4308;DHT22;2167;53.448;9.984;2024-01-30T04:33:25;4.70;1.00
4308;DHT22;2167;53.448;9.984;2024-01-30T04:35:51;4.70;1.00
4308;DHT22;2167;53.448;9.984;2024-01-30T04:41:47;4.60;1.00
4308;DHT22;2167;53.448;9.984;2024-01-30T04:44:16;4.60;1.00
4308;DHT22;2167;53.448;9.984;2024-01-30T04:46:42;4.60;1.00
4308;DHT22;2167;53.448;9.984;2024-01-30T04:49:08;4.60;1.00
4308;DHT22;2167;53.448;9.984;2024-01-30T04:51:33;4.50;1.00
4308;DHT22;2167;53.448;9.984;2024-01-30T04:53:59;4.50;1.00
4308;DHT22;2167;53.448;9.984;2024-01-30T04:56:25;4.50;1.00
4308;DHT22;2167;53.448;9.984;2024-01-30T04:58:50;4.50;1.00
4308;DHT22;2167;53.448;9.984;2024-01-30T05:01:16;4.60;1.00
4308;DHT22;2167;53.448;9.984;2024-01-30T05:03:42;4.50;1.00
4308;DHT22;2167;53.448;9.984;2024-01-30T05:06:08;4.50;1.00
4308;DHT22;2167;53.448;9.984;2024-01-30T05:08:33;4.60;1.00
4308;DHT22;2167;53.448;9.984;2024-01-30T05:11:02;4.50;1.00
4308;DHT22;2167;53.448;9.984;2024-01-30T05:16:38;4.40;1.00
4308;DHT22;2167;53.448;9.984;2024-01-30T05:19:06;4.50;1.00
4308;DHT22;2167;53.448;9.984;2024-01-30T05:21:58;4.40;1.00
4308;DHT22;2167;53.448;9.984;2024-01-30T05:25:24;4.40;1.00
4308;DHT22;2167;53.448;9.984;2024-01-30T05:27:51;4.40;1.00
4308;DHT22;2167;53.448;9.984;2024-01-30T05:30:17;4.40;1.00
4308;DHT22;2167;53.448;9.984;2024-01-30T05:32:43;4.50;1.00
4308;DHT22;2167;53.448;9.984;2024-01-30T05:35:09;4.60;1.00
4308;DHT22;2167;53.448;9.984;2024-01-30T05:37:35;4.60;1.00
4308;DHT22;2167;53.448;9.984;2024-01-30T05:40:00;4.60;1.00
4308;DHT22;2167;53.448;9.984;2024-01-30T05:42:26;4.60;1.00
4308;DHT22;2167;53.448;9.984;2024-01-30T05:44:52;4.50;1.00
4308;DHT22;2167;53.448;9.984;2024-01-30T05:47:17;4.60;1.00
4308;DHT22;2167;53.448;9.984;2024-01-30T05:49:43;4.60;1.00
4308;DHT22;2167;53.448;9.984;2024-01-30T05:52:08;4.60;1.00
4308;DHT22;2167;53.448;9.984;2024-01-30T05:54:35;4.60;1.00
4308;DHT22;2167;53.448;9.984;2024-01-30T05:57:00;4.60;1.00
4308;DHT22;2167;53.448;9.984;2024-01-30T05:59:26;4.60;1.00
4308;DHT22;2167;53.448;9.984;2024-01-30T06:01:51;4.60;1.00
4308;DHT22;2167;53.448;9.984;2024-01-30T06:04:17;4.60;1.00
4308;DHT22;2167;53.448;9.984;2024-01-30T06:06:43;4.60;1.00
4308;DHT22;2167;53.448;9.984;2024-01-30T06:09:08;4.60;1.00
4308;DHT22;2167;53.448;9.984;2024-01-30T06:11:38;4.60;1.00
4308;DHT22;2167;53.448;9.984;2024-01-30T06:14:04;4.60;1.00
4308;DHT22;2167;53.448;9.984;2024-01-30T06:16:29;4.60;1.40
4308;DHT22;2167;53.448;9.984;2024-01-30T06:18:58;4.60;1.60
4308;DHT22;2167;53.448;9.984;2024-01-30T06:21:24;4.60;1.70
4308;DHT22;2167;53.448;9.984;2024-01-30T06:23:50;4.60;1.70
4308;DHT22;2167;53.448;9.984;2024-01-30T06:26:16;4.60;1.60
4308;DHT22;2167;53.448;9.984;2024-01-30T06:28:41;4.60;1.40
4308;DHT22;2167;53.448;9.984;2024-01-30T06:31:07;4.60;1.20
4308;DHT22;2167;53.448;9.984;2024-01-30T06:33:32;4.50;1.70
4308;DHT22;2167;53.448;9.984;2024-01-30T06:35:58;4.60;1.00
4308;DHT22;2167;53.448;9.984;2024-01-30T06:38:24;4.60;1.00
4308;DHT22;2167;53.448;9.984;2024-01-30T06:40:49;4.60;1.00
4308;DHT22;2167;53.448;9.984;2024-01-30T06:43:15;4.60;1.00
4308;DHT22;2167;53.448;9.984;2024-01-30T06:45:40;4.60;1.10
4308;DHT22;2167;53.448;9.984;2024-01-30T06:48:07;4.60;1.30
4308;DHT22;2167;53.448;9.984;2024-01-30T06:50:33;4.60;1.50
4308;DHT22;2167;53.448;9.984;2024-01-30T06:52:58;4.60;1.70
4308;DHT22;2167;53.448;9.984;2024-01-30T06:55:24;4.60;1.70
4308;DHT22;2167;53.448;9.984;2024-01-30T06:57:49;4.60;1.90
4308;DHT22;2167;53.448;9.984;2024-01-30T07:00:16;4.60;1.90
4308;DHT22;2167;53.448;9.984;2024-01-30T07:02:41;4.60;1.70
4308;DHT22;2167;53.448;9.984;2024-01-30T07:05:07;4.50;1.90
4308;DHT22;2167;53.448;9.984;2024-01-30T07:07:33;4.50;2.30
4308;DHT22;2167;53.448;9.984;2024-01-30T07:09:58;4.50;2.30
4308;DHT22;2167;53.448;9.984;2024-01-30T07:12:24;4.60;1.30
4308;DHT22;2167;53.448;9.984;2024-01-30T07:14:51;4.50;1.00
4308;DHT22;2167;53.448;9.984;2024-01-30T07:17:17;4.50;1.00
4308;DHT22;2167;53.448;9.984;2024-01-30T07:19:43;4.60;1.00
4308;DHT22;2167;53.448;9.984;2024-01-30T07:22:08;4.60;1.50
4308;DHT22;2167;53.448;9.984;2024-01-30T07:24:34;4.70;2.00
4308;DHT22;2167;53.448;9.984;2024-01-30T07:27:40;4.80;2.10
4308;DHT22;2167;53.448;9.984;2024-01-30T07:30:09;4.70;2.30
4308;DHT22;2167;53.448;9.984;2024-01-30T07:32:34;4.70;2.40
4308;DHT22;2167;53.448;9.984;2024-01-30T07:35:00;4.70;2.70
4308;DHT22;2167;53.448;9.984;2024-01-30T07:37:25;4.70;3.00
4308;DHT22;2167;53.448;9.984;2024-01-30T07:39:51;4.80;3.20
4308;DHT22;2167;53.448;9.984;2024-01-30T07:42:17;4.80;3.20
4308;DHT22;2167;53.448;9.984;2024-01-30T07:44:43;4.90;3.10
4308;DHT22;2167;53.448;9.984;2024-01-30T07:47:08;4.90;3.00
4308;DHT22;2167;53.448;9.984;2024-01-30T07:49:34;4.90;3.00
4308;DHT22;2167;53.448;9.984;2024-01-30T07:52:00;4.90;3.00
4308;DHT22;2167;53.448;9.984;2024-01-30T07:54:25;5.00;2.90
4308;DHT22;2167;53.448;9.984;2024-01-30T07:56:51;5.10;2.80
4308;DHT22;2167;53.448;9.984;2024-01-30T07:59:17;5.00;2.70
4308;DHT22;2167;53.448;9.984;2024-01-30T08:01:42;5.10;2.60
4308;DHT22;2167;53.448;9.984;2024-01-30T08:04:08;5.20;2.50
4308;DHT22;2167;53.448;9.984;2024-01-30T08:06:33;5.20;2.40
4308;DHT22;2167;53.448;9.984;2024-01-30T08:08:59;5.20;2.50
4308;DHT22;2167;53.448;9.984;2024-01-30T08:11:25;5.30;2.70
4308;DHT22;2167;53.448;9.984;2024-01-30T08:13:55;5.40;2.40
4308;DHT22;2167;53.448;9.984;2024-01-30T08:16:21;5.40;2.10
4308;DHT22;2167;53.448;9.984;2024-01-30T08:19:04;5.40;2.00
4308;DHT22;2167;53.448;9.984;2024-01-30T08:21:30;5.40;1.60
4308;DHT22;2167;53.448;9.984;2024-01-30T08:24:04;5.50;1.60
4308;DHT22;2167;53.448;9.984;2024-01-30T08:26:30;5.50;1.60
4308;DHT22;2167;53.448;9.984;2024-01-30T08:28:56;5.50;1.60
4308;DHT22;2167;53.448;9.984;2024-01-30T08:31:22;5.50;1.50
4308;DHT22;2167;53.448;9.984;2024-01-30T08:33:47;5.60;1.40
4308;DHT22;2167;53.448;9.984;2024-01-30T08:36:13;5.60;1.20
4308;DHT22;2167;53.448;9.984;2024-01-30T08:38:38;5.60;1.20
4308;DHT22;2167;53.448;9.984;2024-01-30T08:41:04;5.70;1.50
4308;DHT22;2167;53.448;9.984;2024-01-30T08:43:30;5.80;1.60
4308;DHT22;2167;53.448;9.984;2024-01-30T08:45:59;5.80;1.30
4308;DHT22;2167;53.448;9.984;2024-01-30T08:48:25;5.90;1.00
4308;DHT22;2167;53.448;9.984;2024-01-30T08:50:51;5.90;1.00
4308;DHT22;2167;53.448;9.984;2024-01-30T08:53:18;6.00;1.00
4308;DHT22;2167;53.448;9.984;2024-01-30T08:55:44;6.00;1.00
4308;DHT22;2167;53.448;9.984;2024-01-30T08:58:10;6.10;1.00
4308;DHT22;2167;53.448;9.984;2024-01-30T09:00:35;6.00;1.00
4308;DHT22;2167;53.448;9.984;2024-01-30T09:03:01;6.00;1.00
4308;DHT22;2167;53.448;9.984;2024-01-30T09:05:27;6.00;1.00
4308;DHT22;2167;53.448;9.984;2024-01-30T09:07:52;6.10;1.00
4308;DHT22;2167;53.448;9.984;2024-01-30T09:10:19;6.10;1.00
4308;DHT22;2167;53.448;9.984;2024-01-30T09:12:46;6.10;1.00
4308;DHT22;2167;53.448;9.984;2024-01-30T09:15:12;6.20;1.00
4308;DHT22;2167;53.448;9.984;2024-01-30T09:17:37;6.30;1.00
4308;DHT22;2167;53.448;9.984;2024-01-30T09:20:04;6.30;1.00
4308;DHT22;2167;53.448;9.984;2024-01-30T09:22:29;6.30;1.00
4308;DHT22;2167;53.448;9.984;2024-01-30T09:24:56;6.30;1.00
4308;DHT22;2167;53.448;9.984;2024-01-30T09:27:22;6.40;1.00
4308;DHT22;2167;53.448;9.984;2024-01-30T09:29:47;6.50;1.00
4308;DHT22;2167;53.448;9.984;2024-01-30T09:32:13;6.50;1.00
4308;DHT22;2167;53.448;9.984;2024-01-30T09:34:38;6.60;1.00
4308;DHT22;2167;53.448;9.984;2024-01-30T09:37:05;6.70;1.00
4308;DHT22;2167;53.448;9.984;2024-01-30T09:39:30;6.80;1.00
4308;DHT22;2167;53.448;9.984;2024-01-30T09:42:16;6.80;1.00
4308;DHT22;2167;53.448;9.984;2024-01-30T09:44:44;6.90;1.00
4308;DHT22;2167;53.448;9.984;2024-01-30T09:47:10;7.00;1.00
4308;DHT22;2167;53.448;9.984;2024-01-30T09:49:36;7.00;1.00
4308;DHT22;2167;53.448;9.984;2024-01-30T09:52:05;7.10;1.00
4308;DHT22;2167;53.448;9.984;2024-01-30T09:54:31;7.20;1.00
4308;DHT22;2167;53.448;9.984;2024-01-30T09:56:57;7.20;1.00
4308;DHT22;2167;53.448;9.984;2024-01-30T09:59:23;7.30;1.00
4308;DHT22;2167;53.448;9.984;2024-01-30T10:01:50;7.30;1.00
4308;DHT22;2167;53.448;9.984;2024-01-30T10:04:16;7.30;1.00
4308;DHT22;2167;53.448;9.984;2024-01-30T10:06:43;7.50;1.00
4308;DHT22;2167;53.448;9.984;2024-01-30T10:09:17;7.50;1.00
4308;DHT22;2167;53.448;9.984;2024-01-30T10:11:51;7.60;1.00
4308;DHT22;2167;53.448;9.984;2024-01-30T10:17:44;7.80;1.00
4308;DHT22;2167;53.448;9.984;2024-01-30T10:20:47;7.90;1.00
4308;DHT22;2167;53.448;9.984;2024-01-30T10:23:13;7.90;1.00
4308;DHT22;2167;53.448;9.984;2024-01-30T10:25:39;8.00;1.00
4308;DHT22;2167;53.448;9.984;2024-01-30T10:28:04;8.00;1.00
4308;DHT22;2167;53.448;9.984;2024-01-30T10:30:30;8.00;1.00
4308;DHT22;2167;53.448;9.984;2024-01-30T10:32:56;8.10;1.00
4308;DHT22;2167;53.448;9.984;2024-01-30T10:35:21;8.10;1.00
4308;DHT22;2167;53.448;9.984;2024-01-30T10:37:47;8.10;1.00
4308;DHT22;2167;53.448;9.984;2024-01-30T10:40:21;8.20;1.00
4308;DHT22;2167;53.448;9.984;2024-01-30T10:43:18;8.30;1.00
4308;DHT22;2167;53.448;9.984;2024-01-30T10:45:48;8.40;1.00
4308;DHT22;2167;53.448;9.984;2024-01-30T10:48:16;8.60;1.00
4308;DHT22;2167;53.448;9.984;2024-01-30T10:51:14;8.70;1.00
4308;DHT22;2167;53.448;9.984;2024-01-30T11:00:43;8.90;1.00
4308;DHT22;2167;53.448;9.984;2024-01-30T11:03:47;8.90;1.00
4308;DHT22;2167;53.448;9.984;2024-01-30T11:06:22;9.00;1.00
4308;DHT22;2167;53.448;9.984;2024-01-30T11:19:22;9.30;1.00
4308;DHT22;2167;53.448;9.984;2024-01-30T11:21:53;9.40;1.00
4308;DHT22;2167;53.448;9.984;2024-01-30T11:24:30;9.40;1.00
4308;DHT22;2167;53.448;9.984;2024-01-30T11:27:23;9.40;1.00
4308;DHT22;2167;53.448;9.984;2024-01-30T11:30:25;9.60;1.00
4308;DHT22;2167;53.448;9.984;2024-01-30T11:33:01;9.60;1.00
4308;DHT22;2167;53.448;9.984;2024-01-30T11:35:33;9.60;1.00
4308;DHT22;2167;53.448;9.984;2024-01-30T11:38:00;9.70;1.00
4308;DHT22;2167;53.448;9.984;2024-01-30T11:40:30;9.80;1.00
4308;DHT22;2167;53.448;9.984;2024-01-30T11:43:01;9.80;1.00
4308;DHT22;2167;53.448;9.984;2024-01-30T11:45:30;9.90;1.00
4308;DHT22;2167;53.448;9.984;2024-01-30T11:47:56;10.00;1.00
4308;DHT22;2167;53.448;9.984;2024-01-30T11:50:23;10.00;1.00
4308;DHT22;2167;53.448;9.984;2024-01-30T11:53:05;10.10;1.00
4308;DHT22;2167;53.448;9.984;2024-01-30T11:55:31;10.20;1.00
4308;DHT22;2167;53.448;9.984;2024-01-30T11:57:58;10.30;1.00
4308;DHT22;2167;53.448;9.984;2024-01-30T12:00:24;10.30;1.00
4308;DHT22;2167;53.448;9.984;2024-01-30T12:02:53;10.40;1.00
4308;DHT22;2167;53.448;9.984;2024-01-30T12:05:23;10.40;1.00
4308;DHT22;2167;53.448;9.984;2024-01-30T12:07:49;10.40;1.00
4308;DHT22;2167;53.448;9.984;2024-01-30T12:10:15;10.40;1.00
4308;DHT22;2167;53.448;9.984;2024-01-30T12:12:43;10.50;1.00
4308;DHT22;2167;53.448;9.984;2024-01-30T12:15:10;10.50;1.00
4308;DHT22;2167;53.448;9.984;2024-01-30T12:17:36;10.50;1.00
4308;DHT22;2167;53.448;9.984;2024-01-30T12:20:13;10.50;1.00
4308;DHT22;2167;53.448;9.984;2024-01-30T12:22:45;10.50;1.00
4308;DHT22;2167;53.448;9.984;2024-01-30T12:25:15;10.40;1.00
4308;DHT22;2167;53.448;9.984;2024-01-30T12:27:48;10.50;1.00
4308;DHT22;2167;53.448;9.984;2024-01-30T12:30:19;10.50;1.00
4308;DHT22;2167;53.448;9.984;2024-01-30T12:32:46;10.50;1.00
4308;DHT22;2167;53.448;9.984;2024-01-30T12:35:15;10.50;1.00
4308;DHT22;2167;53.448;9.984;2024-01-30T12:37:43;10.50;1.00
4308;DHT22;2167;53.448;9.984;2024-01-30T12:40:09;10.60;1.00
4308;DHT22;2167;53.448;9.984;2024-01-30T12:42:35;10.60;1.00
4308;DHT22;2167;53.448;9.984;2024-01-30T12:45:04;10.60;1.00
4308;DHT22;2167;53.448;9.984;2024-01-30T12:47:30;10.60;1.00
4308;DHT22;2167;53.448;9.984;2024-01-30T12:49:57;10.70;1.00
4308;DHT22;2167;53.448;9.984;2024-01-30T12:52:23;10.60;1.00
4308;DHT22;2167;53.448;9.984;2024-01-30T12:54:49;10.60;1.00
4308;DHT22;2167;53.448;9.984;2024-01-30T12:57:15;10.60;1.00
4308;DHT22;2167;53.448;9.984;2024-01-30T12:59:42;10.60;1.00
4308;DHT22;2167;53.448;9.984;2024-01-30T13:02:07;10.60;1.00
4308;DHT22;2167;53.448;9.984;2024-01-30T13:04:33;10.60;1.00
4308;DHT22;2167;53.448;9.984;2024-01-30T13:06:59;10.60;1.00
4308;DHT22;2167;53.448;9.984;2024-01-30T13:09:26;10.60;1.00
4308;DHT22;2167;53.448;9.984;2024-01-30T13:11:53;10.60;1.00
4308;DHT22;2167;53.448;9.984;2024-01-30T13:14:19;10.60;1.00
4308;DHT22;2167;53.448;9.984;2024-01-30T13:16:44;10.60;1.00
4308;DHT22;2167;53.448;9.984;2024-01-30T13:19:10;10.70;1.00
4308;DHT22;2167;53.448;9.984;2024-01-30T13:21:35;10.70;1.00
4308;DHT22;2167;53.448;9.984;2024-01-30T13:24:01;10.70;1.00
4308;DHT22;2167;53.448;9.984;2024-01-30T13:26:26;10.70;1.00
4308;DHT22;2167;53.448;9.984;2024-01-30T13:28:52;10.60;1.00
4308;DHT22;2167;53.448;9.984;2024-01-30T13:31:18;10.70;1.00
4308;DHT22;2167;53.448;9.984;2024-01-30T13:33:44;10.60;1.00
4308;DHT22;2167;53.448;9.984;2024-01-30T13:36:11;10.60;1.00
4308;DHT22;2167;53.448;9.984;2024-01-30T13:38:37;10.50;1.00
4308;DHT22;2167;53.448;9.984;2024-01-30T13:41:03;10.60;1.00
4308;DHT22;2167;53.448;9.984;2024-01-30T13:43:29;10.60;1.00
4308;DHT22;2167;53.448;9.984;2024-01-30T13:45:54;10.60;1.00
4308;DHT22;2167;53.448;9.984;2024-01-30T13:48:20;10.60;1.00
4308;DHT22;2167;53.448;9.984;2024-01-30T13:50:46;10.70;1.00
4308;DHT22;2167;53.448;9.984;2024-01-30T13:53:13;10.70;1.00
4308;DHT22;2167;53.448;9.984;2024-01-30T13:55:38;10.70;1.00
4308;DHT22;2167;53.448;9.984;2024-01-30T13:58:05;10.70;1.00
4308;DHT22;2167;53.448;9.984;2024-01-30T14:00:30;10.60;1.00
4308;DHT22;2167;53.448;9.984;2024-01-30T14:02:56;10.70;1.00
4308;DHT22;2167;53.448;9.984;2024-01-30T14:05:24;10.70;1.00
4308;DHT22;2167;53.448;9.984;2024-01-30T14:07:50;10.70;1.00
4308;DHT22;2167;53.448;9.984;2024-01-30T14:10:16;10.70;1.00
4308;DHT22;2167;53.448;9.984;2024-01-30T14:12:42;10.80;1.00
4308;DHT22;2167;53.448;9.984;2024-01-30T14:15:09;10.70;1.00
4308;DHT22;2167;53.448;9.984;2024-01-30T14:17:43;10.70;1.00
4308;DHT22;2167;53.448;9.984;2024-01-30T14:20:10;10.70;1.00
4308;DHT22;2167;53.448;9.984;2024-01-30T14:22:36;10.70;1.00
4308;DHT22;2167;53.448;9.984;2024-01-30T14:25:02;10.70;1.00
4308;DHT22;2167;53.448;9.984;2024-01-30T14:27:29;10.70;1.00
4308;DHT22;2167;53.448;9.984;2024-01-30T14:36:14;10.60;1.00
4308;DHT22;2167;53.448;9.984;2024-01-30T14:38:40;10.60;1.00
4308;DHT22;2167;53.448;9.984;2024-01-30T14:41:05;10.70;1.00
4308;DHT22;2167;53.448;9.984;2024-01-30T14:43:38;10.70;1.00
4308;DHT22;2167;53.448;9.984;2024-01-30T14:46:16;10.70;1.00
4308;DHT22;2167;53.448;9.984;2024-01-30T14:48:42;10.70;1.00
4308;DHT22;2167;53.448;9.984;2024-01-30T14:51:35;10.70;1.00
4308;DHT22;2167;53.448;9.984;2024-01-30T14:54:03;10.70;1.00
4308;DHT22;2167;53.448;9.984;2024-01-30T14:56:53;10.70;1.00
4308;DHT22;2167;53.448;9.984;2024-01-30T15:06:03;10.70;1.00
4308;DHT22;2167;53.448;9.984;2024-01-30T15:33:02;10.70;1.00
4308;DHT22;2167;53.448;9.984;2024-01-30T15:46:04;10.80;1.00
4308;DHT22;2167;53.448;9.984;2024-01-30T15:48:32;10.80;1.00
4308;DHT22;2167;53.448;9.984;2024-01-30T15:58:10;10.90;1.00
4308;DHT22;2167;53.448;9.984;2024-01-30T16:00:36;10.90;1.00
4308;DHT22;2167;53.448;9.984;2024-01-30T16:03:01;10.80;1.00
4308;DHT22;2167;53.448;9.984;2024-01-30T16:05:27;10.80;1.00
4308;DHT22;2167;53.448;9.984;2024-01-30T16:11:16;10.90;1.00
4308;DHT22;2167;53.448;9.984;2024-01-30T16:13:42;10.90;1.00
4308;DHT22;2167;53.448;9.984;2024-01-30T16:16:08;10.80;1.00
4308;DHT22;2167;53.448;9.984;2024-01-30T16:18:34;10.70;1.00
4308;DHT22;2167;53.448;9.984;2024-01-30T16:21:09;10.70;1.00
4308;DHT22;2167;53.448;9.984;2024-01-30T16:23:57;10.70;1.00
4308;DHT22;2167;53.448;9.984;2024-01-30T16:29:44;10.60;1.00
4308;DHT22;2167;53.448;9.984;2024-01-30T16:32:10;10.60;1.00
4308;DHT22;2167;53.448;9.984;2024-01-30T16:34:36;10.50;1.00
4308;DHT22;2167;53.448;9.984;2024-01-30T16:37:01;10.50;1.00
4308;DHT22;2167;53.448;9.984;2024-01-30T16:42:42;10.50;1.00
4308;DHT22;2167;53.448;9.984;2024-01-30T16:45:08;10.60;1.00
4308;DHT22;2167;53.448;9.984;2024-01-30T16:47:33;10.60;1.00
4308;DHT22;2167;53.448;9.984;2024-01-30T16:49:59;10.60;1.00
4308;DHT22;2167;53.448;9.984;2024-01-30T16:52:25;10.70;1.00
4308;DHT22;2167;53.448;9.984;2024-01-30T16:54:52;10.60;1.00
4308;DHT22;2167;53.448;9.984;2024-01-30T16:57:21;10.70;1.00
4308;DHT22;2167;53.448;9.984;2024-01-30T17:25:25;10.80;1.00
4308;DHT22;2167;53.448;9.984;2024-01-30T17:27:51;10.80;1.00
4308;DHT22;2167;53.448;9.984;2024-01-30T17:30:21;10.80;1.00
4308;DHT22;2167;53.448;9.984;2024-01-30T17:32:47;10.80;1.00
4308;DHT22;2167;53.448;9.984;2024-01-30T17:35:13;10.80;1.00
4308;DHT22;2167;53.448;9.984;2024-01-30T17:37:38;10.80;1.00
4308;DHT22;2167;53.448;9.984;2024-01-30T17:40:05;10.80;1.00
4308;DHT22;2167;53.448;9.984;2024-01-30T17:42:31;10.80;1.00
4308;DHT22;2167;53.448;9.984;2024-01-30T17:45:00;10.80;1.00
4308;DHT22;2167;53.448;9.984;2024-01-30T17:47:26;10.80;1.00
4308;DHT22;2167;53.448;9.984;2024-01-30T17:50:10;10.80;1.00
4308;DHT22;2167;53.448;9.984;2024-01-30T17:56:10;10.80;1.00
4308;DHT22;2167;53.448;9.984;2024-01-30T17:58:36;10.80;1.00
4308;DHT22;2167;53.448;9.984;2024-01-30T18:01:03;10.80;1.00
4308;DHT22;2167;53.448;9.984;2024-01-30T18:03:29;10.80;1.00
4308;DHT22;2167;53.448;9.984;2024-01-30T18:05:54;10.80;1.00
4308;DHT22;2167;53.448;9.984;2024-01-30T18:08:21;10.80;1.00
4308;DHT22;2167;53.448;9.984;2024-01-30T18:10:49;10.80;1.00
4308;DHT22;2167;53.448;9.984;2024-01-30T18:13:15;10.90;1.00
4308;DHT22;2167;53.448;9.984;2024-01-30T18:15:42;10.80;1.00
4308;DHT22;2167;53.448;9.984;2024-01-30T18:18:09;10.90;1.00
4308;DHT22;2167;53.448;9.984;2024-01-30T18:20:37;10.80;1.00
4308;DHT22;2167;53.448;9.984;2024-01-30T18:23:02;10.80;1.00
4308;DHT22;2167;53.448;9.984;2024-01-30T18:25:28;10.90;1.00
4308;DHT22;2167;53.448;9.984;2024-01-30T18:27:54;10.90;1.00
4308;DHT22;2167;53.448;9.984;2024-01-30T18:30:19;10.90;1.00
4308;DHT22;2167;53.448;9.984;2024-01-30T18:32:45;10.90;1.00
4308;DHT22;2167;53.448;9.984;2024-01-30T18:35:11;10.90;1.00
4308;DHT22;2167;53.448;9.984;2024-01-30T18:37:48;10.80;1.00
4308;DHT22;2167;53.448;9.984;2024-01-30T18:40:14;10.80;1.00
4308;DHT22;2167;53.448;9.984;2024-01-30T18:46:01;10.80;1.00
4308;DHT22;2167;53.448;9.984;2024-01-30T18:55:11;10.70;1.00
4308;DHT22;2167;53.448;9.984;2024-01-30T18:57:37;10.70;1.00
4308;DHT22;2167;53.448;9.984;2024-01-30T19:00:03;10.70;1.00
4308;DHT22;2167;53.448;9.984;2024-01-30T19:03:06;10.70;1.00
4308;DHT22;2167;53.448;9.984;2024-01-30T19:05:59;10.70;1.00
4308;DHT22;2167;53.448;9.984;2024-01-30T19:08:31;10.70;1.00